sensor_id;sensor_type;location;lat;lon;timestamp;P1;durP1;ratioP1;P2;durP2;ratioP2
7410;SDS011;3747;48.628;9.058;2023-05-07T00:01:58;4.10;;;3.77;;
7410;SDS011;3747;48.628;9.058;2023-05-07T00:04:25;4.50;;;4.00;;
7410;SDS011;3747;48.628;9.058;2023-05-07T00:06:53;4.50;;;4.10;;
7410;SDS011;3747;48.628;9.058;2023-05-07T00:09:20;5.33;;;4.20;;
7410;SDS011;3747;48.628;9.058;2023-05-07T00:11:46;6.23;;;4.70;;
7410;SDS011;3747;48.628;9.058;2023-05-07T00:14:13;4.60;;;4.20;;
7410;SDS011;3747;48.628;9.058;2023-05-07T00:16:40;4.73;;;4.33;;
7410;SDS011;3747;48.628;9.058;2023-05-07T00:19:08;5.17;;;4.67;;
7410;SDS011;3747;48.628;9.058;2023-05-07T00:21:34;4.50;;;4.10;;
7410;SDS011;3747;48.628;9.058;2023-05-07T00:24:01;4.90;;;4.40;;
7410;SDS011;3747;48.628;9.058;2023-05-07T00:26:28;5.63;;;5.13;;
7410;SDS011;3747;48.628;9.058;2023-05-07T00:28:55;5.07;;;4.60;;
7410;SDS011;3747;48.628;9.058;2023-05-07T00:31:21;5.67;;;5.07;;
7410;SDS011;3747;48.628;9.058;2023-05-07T00:33:48;4.90;;;4.43;;
7410;SDS011;3747;48.628;9.058;2023-05-07T00:36:16;5.07;;;4.57;;
7410;SDS011;3747;48.628;9.058;2023-05-07T00:38:43;7.67;;;4.50;;
7410;SDS011;3747;48.628;9.058;2023-05-07T00:41:09;4.90;;;4.50;;
7410;SDS011;3747;48.628;9.058;2023-05-07T00:43:36;5.77;;;4.60;;
7410;SDS011;3747;48.628;9.058;2023-05-07T00:46:03;4.80;;;4.30;;
7410;SDS011;3747;48.628;9.058;2023-05-07T00:48:30;4.83;;;4.40;;
7410;SDS011;3747;48.628;9.058;2023-05-07T00:50:57;6.10;;;4.67;;
7410;SDS011;3747;48.628;9.058;2023-05-07T00:53:25;6.50;;;4.80;;
7410;SDS011;3747;48.628;9.058;2023-05-07T00:55:52;5.90;;;5.30;;
7410;SDS011;3747;48.628;9.058;2023-05-07T00:58:19;4.80;;;4.37;;
7410;SDS011;3747;48.628;9.058;2023-05-07T01:00:47;6.53;;;4.30;;
7410;SDS011;3747;48.628;9.058;2023-05-07T01:03:13;5.10;;;4.60;;
7410;SDS011;3747;48.628;9.058;2023-05-07T01:05:40;4.53;;;4.13;;
7410;SDS011;3747;48.628;9.058;2023-05-07T01:08:08;4.97;;;4.50;;
7410;SDS011;3747;48.628;9.058;2023-05-07T01:10:37;4.83;;;4.53;;
7410;SDS011;3747;48.628;9.058;2023-05-07T01:13:07;8.70;;;4.80;;
7410;SDS011;3747;48.628;9.058;2023-05-07T01:15:35;5.37;;;4.53;;
7410;SDS011;3747;48.628;9.058;2023-05-07T01:18:01;8.10;;;5.60;;
7410;SDS011;3747;48.628;9.058;2023-05-07T01:20:28;6.10;;;5.20;;
7410;SDS011;3747;48.628;9.058;2023-05-07T01:22:57;5.10;;;4.63;;
7410;SDS011;3747;48.628;9.058;2023-05-07T01:25:25;4.60;;;4.20;;
7410;SDS011;3747;48.628;9.058;2023-05-07T01:27:52;5.83;;;4.47;;
7410;SDS011;3747;48.628;9.058;2023-05-07T01:30:19;4.17;;;3.77;;
7410;SDS011;3747;48.628;9.058;2023-05-07T01:32:48;4.33;;;3.93;;
7410;SDS011;3747;48.628;9.058;2023-05-07T01:35:18;5.10;;;4.50;;
7410;SDS011;3747;48.628;9.058;2023-05-07T01:37:47;5.57;;;3.60;;
7410;SDS011;3747;48.628;9.058;2023-05-07T01:40:16;4.40;;;4.00;;
7410;SDS011;3747;48.628;9.058;2023-05-07T01:42:43;5.90;;;4.83;;
7410;SDS011;3747;48.628;9.058;2023-05-07T01:45:10;5.93;;;4.90;;
7410;SDS011;3747;48.628;9.058;2023-05-07T01:47:37;5.53;;;4.90;;
7410;SDS011;3747;48.628;9.058;2023-05-07T01:50:05;5.20;;;4.70;;
7410;SDS011;3747;48.628;9.058;2023-05-07T01:52:35;5.97;;;4.87;;
7410;SDS011;3747;48.628;9.058;2023-05-07T01:55:03;5.90;;;5.30;;
7410;SDS011;3747;48.628;9.058;2023-05-07T01:57:32;5.47;;;4.97;;
7410;SDS011;3747;48.628;9.058;2023-05-07T01:59:59;6.00;;;5.03;;
7410;SDS011;3747;48.628;9.058;2023-05-07T02:02:27;5.43;;;4.93;;
7410;SDS011;3747;48.628;9.058;2023-05-07T02:04:54;5.60;;;5.00;;
7410;SDS011;3747;48.628;9.058;2023-05-07T02:07:21;6.30;;;5.67;;
7410;SDS011;3747;48.628;9.058;2023-05-07T02:09:49;6.33;;;5.47;;
7410;SDS011;3747;48.628;9.058;2023-05-07T02:12:15;6.53;;;5.93;;
7410;SDS011;3747;48.628;9.058;2023-05-07T02:14:43;7.10;;;5.07;;
7410;SDS011;3747;48.628;9.058;2023-05-07T02:17:10;6.27;;;5.43;;
7410;SDS011;3747;48.628;9.058;2023-05-07T02:19:36;6.90;;;4.90;;
7410;SDS011;3747;48.628;9.058;2023-05-07T02:22:03;9.33;;;5.80;;
7410;SDS011;3747;48.628;9.058;2023-05-07T02:24:30;5.90;;;5.30;;
7410;SDS011;3747;48.628;9.058;2023-05-07T02:26:57;6.27;;;5.67;;
7410;SDS011;3747;48.628;9.058;2023-05-07T02:29:23;7.77;;;6.27;;
7410;SDS011;3747;48.628;9.058;2023-05-07T02:31:51;7.53;;;6.57;;
7410;SDS011;3747;48.628;9.058;2023-05-07T02:34:18;7.77;;;6.73;;
7410;SDS011;3747;48.628;9.058;2023-05-07T02:36:45;6.83;;;6.00;;
7410;SDS011;3747;48.628;9.058;2023-05-07T02:39:12;8.23;;;6.17;;
7410;SDS011;3747;48.628;9.058;2023-05-07T02:41:40;8.20;;;5.50;;
7410;SDS011;3747;48.628;9.058;2023-05-07T02:44:07;7.63;;;6.23;;
7410;SDS011;3747;48.628;9.058;2023-05-07T02:46:34;7.03;;;6.13;;
7410;SDS011;3747;48.628;9.058;2023-05-07T02:49:02;6.83;;;5.97;;
7410;SDS011;3747;48.628;9.058;2023-05-07T02:51:29;7.40;;;6.33;;
7410;SDS011;3747;48.628;9.058;2023-05-07T02:53:57;7.07;;;6.37;;
7410;SDS011;3747;48.628;9.058;2023-05-07T02:56:25;7.00;;;6.30;;
7410;SDS011;3747;48.628;9.058;2023-05-07T02:58:52;7.43;;;6.33;;
7410;SDS011;3747;48.628;9.058;2023-05-07T03:01:19;7.03;;;6.17;;
7410;SDS011;3747;48.628;9.058;2023-05-07T03:03:46;8.33;;;6.33;;
7410;SDS011;3747;48.628;9.058;2023-05-07T03:06:14;6.60;;;5.93;;
7410;SDS011;3747;48.628;9.058;2023-05-07T03:08:40;6.27;;;5.33;;
7410;SDS011;3747;48.628;9.058;2023-05-07T03:11:07;6.20;;;5.70;;
7410;SDS011;3747;48.628;9.058;2023-05-07T03:13:34;6.07;;;5.47;;
7410;SDS011;3747;48.628;9.058;2023-05-07T03:16:00;6.20;;;5.03;;
7410;SDS011;3747;48.628;9.058;2023-05-07T03:18:27;6.23;;;5.63;;
7410;SDS011;3747;48.628;9.058;2023-05-07T03:20:54;5.93;;;5.40;;
7410;SDS011;3747;48.628;9.058;2023-05-07T03:23:22;5.80;;;5.20;;
7410;SDS011;3747;48.628;9.058;2023-05-07T03:25:48;7.33;;;6.13;;
7410;SDS011;3747;48.628;9.058;2023-05-07T03:28:15;6.80;;;6.20;;
7410;SDS011;3747;48.628;9.058;2023-05-07T03:30:41;8.20;;;6.50;;
7410;SDS011;3747;48.628;9.058;2023-05-07T03:33:08;9.10;;;6.50;;
7410;SDS011;3747;48.628;9.058;2023-05-07T03:35:35;6.50;;;5.83;;
7410;SDS011;3747;48.628;9.058;2023-05-07T03:38:02;6.20;;;5.60;;
7410;SDS011;3747;48.628;9.058;2023-05-07T03:40:30;6.13;;;5.40;;
7410;SDS011;3747;48.628;9.058;2023-05-07T03:42:56;5.83;;;5.23;;
7410;SDS011;3747;48.628;9.058;2023-05-07T03:45:23;6.57;;;5.57;;
7410;SDS011;3747;48.628;9.058;2023-05-07T03:47:50;6.57;;;5.97;;
7410;SDS011;3747;48.628;9.058;2023-05-07T03:50:16;6.03;;;5.43;;
7410;SDS011;3747;48.628;9.058;2023-05-07T03:52:43;6.00;;;5.37;;
7410;SDS011;3747;48.628;9.058;2023-05-07T03:55:10;6.13;;;5.33;;
7410;SDS011;3747;48.628;9.058;2023-05-07T03:57:38;6.23;;;5.43;;
7410;SDS011;3747;48.628;9.058;2023-05-07T04:00:05;5.90;;;5.30;;
7410;SDS011;3747;48.628;9.058;2023-05-07T04:02:33;5.60;;;5.10;;
7410;SDS011;3747;48.628;9.058;2023-05-07T04:04:59;5.50;;;5.00;;
7410;SDS011;3747;48.628;9.058;2023-05-07T04:07:26;5.20;;;4.70;;
7410;SDS011;3747;48.628;9.058;2023-05-07T04:09:53;5.50;;;5.00;;
7410;SDS011;3747;48.628;9.058;2023-05-07T04:12:19;7.07;;;6.37;;
7410;SDS011;3747;48.628;9.058;2023-05-07T04:14:47;6.73;;;5.97;;
7410;SDS011;3747;48.628;9.058;2023-05-07T04:17:14;7.90;;;6.17;;
7410;SDS011;3747;48.628;9.058;2023-05-07T04:19:41;7.67;;;6.47;;
7410;SDS011;3747;48.628;9.058;2023-05-07T04:22:10;7.13;;;6.43;;
7410;SDS011;3747;48.628;9.058;2023-05-07T04:24:36;6.97;;;6.10;;
7410;SDS011;3747;48.628;9.058;2023-05-07T04:27:03;7.10;;;6.40;;
7410;SDS011;3747;48.628;9.058;2023-05-07T04:29:31;6.47;;;5.87;;
7410;SDS011;3747;48.628;9.058;2023-05-07T04:31:59;7.07;;;6.20;;
7410;SDS011;3747;48.628;9.058;2023-05-07T04:34:26;6.97;;;6.27;;
7410;SDS011;3747;48.628;9.058;2023-05-07T04:36:53;9.13;;;7.53;;
7410;SDS011;3747;48.628;9.058;2023-05-07T04:39:19;8.17;;;6.93;;
7410;SDS011;3747;48.628;9.058;2023-05-07T04:41:46;11.43;;;7.20;;
7410;SDS011;3747;48.628;9.058;2023-05-07T04:44:13;10.07;;;6.40;;
7410;SDS011;3747;48.628;9.058;2023-05-07T04:46:39;8.80;;;7.13;;
7410;SDS011;3747;48.628;9.058;2023-05-07T04:49:07;7.93;;;7.00;;
7410;SDS011;3747;48.628;9.058;2023-05-07T04:51:35;7.33;;;6.67;;
7410;SDS011;3747;48.628;9.058;2023-05-07T04:54:01;9.13;;;6.73;;
7410;SDS011;3747;48.628;9.058;2023-05-07T04:56:28;6.67;;;6.00;;
7410;SDS011;3747;48.628;9.058;2023-05-07T04:58:55;7.27;;;5.73;;
7410;SDS011;3747;48.628;9.058;2023-05-07T05:01:22;7.23;;;6.27;;
7410;SDS011;3747;48.628;9.058;2023-05-07T05:03:49;6.30;;;5.80;;
7410;SDS011;3747;48.628;9.058;2023-05-07T05:06:17;6.47;;;5.40;;
7410;SDS011;3747;48.628;9.058;2023-05-07T05:08:43;6.03;;;5.43;;
7410;SDS011;3747;48.628;9.058;2023-05-07T05:11:10;5.07;;;4.67;;
7410;SDS011;3747;48.628;9.058;2023-05-07T05:13:37;4.97;;;4.50;;
7410;SDS011;3747;48.628;9.058;2023-05-07T05:16:04;4.00;;;3.60;;
7410;SDS011;3747;48.628;9.058;2023-05-07T05:18:31;3.57;;;3.27;;
7410;SDS011;3747;48.628;9.058;2023-05-07T05:20:58;4.80;;;4.00;;
7410;SDS011;3747;48.628;9.058;2023-05-07T05:23:26;3.70;;;3.40;;
7410;SDS011;3747;48.628;9.058;2023-05-07T05:25:55;4.13;;;3.63;;
7410;SDS011;3747;48.628;9.058;2023-05-07T05:28:22;3.83;;;3.53;;
7410;SDS011;3747;48.628;9.058;2023-05-07T05:30:49;4.37;;;3.93;;
7410;SDS011;3747;48.628;9.058;2023-05-07T05:33:15;3.63;;;3.27;;
7410;SDS011;3747;48.628;9.058;2023-05-07T05:35:42;3.20;;;2.90;;
7410;SDS011;3747;48.628;9.058;2023-05-07T05:38:09;3.10;;;2.90;;
7410;SDS011;3747;48.628;9.058;2023-05-07T05:40:37;4.20;;;3.80;;
7410;SDS011;3747;48.628;9.058;2023-05-07T05:43:03;4.23;;;3.83;;
7410;SDS011;3747;48.628;9.058;2023-05-07T05:45:31;3.07;;;2.83;;
7410;SDS011;3747;48.628;9.058;2023-05-07T05:47:58;4.10;;;3.40;;
7410;SDS011;3747;48.628;9.058;2023-05-07T05:50:25;3.87;;;3.20;;
7410;SDS011;3747;48.628;9.058;2023-05-07T05:52:51;2.97;;;2.67;;
7410;SDS011;3747;48.628;9.058;2023-05-07T05:55:18;3.23;;;2.93;;
7410;SDS011;3747;48.628;9.058;2023-05-07T05:57:47;3.03;;;2.73;;
7410;SDS011;3747;48.628;9.058;2023-05-07T06:00:13;3.50;;;3.20;;
7410;SDS011;3747;48.628;9.058;2023-05-07T06:02:41;2.90;;;2.70;;
7410;SDS011;3747;48.628;9.058;2023-05-07T06:05:08;3.70;;;3.10;;
7410;SDS011;3747;48.628;9.058;2023-05-07T06:07:35;3.03;;;2.73;;
7410;SDS011;3747;48.628;9.058;2023-05-07T06:10:02;3.63;;;3.33;;
7410;SDS011;3747;48.628;9.058;2023-05-07T06:12:29;2.93;;;2.73;;
7410;SDS011;3747;48.628;9.058;2023-05-07T06:14:57;4.30;;;3.10;;
7410;SDS011;3747;48.628;9.058;2023-05-07T06:17:23;3.53;;;3.23;;
7410;SDS011;3747;48.628;9.058;2023-05-07T06:19:50;3.53;;;3.23;;
7410;SDS011;3747;48.628;9.058;2023-05-07T06:22:18;3.50;;;3.20;;
7410;SDS011;3747;48.628;9.058;2023-05-07T06:24:45;4.47;;;2.90;;
7410;SDS011;3747;48.628;9.058;2023-05-07T06:27:12;4.10;;;3.47;;
7410;SDS011;3747;48.628;9.058;2023-05-07T06:29:38;3.97;;;3.00;;
7410;SDS011;3747;48.628;9.058;2023-05-07T06:32:07;4.20;;;3.33;;
7410;SDS011;3747;48.628;9.058;2023-05-07T06:34:34;3.40;;;3.10;;
7410;SDS011;3747;48.628;9.058;2023-05-07T06:37:01;5.77;;;3.00;;
7410;SDS011;3747;48.628;9.058;2023-05-07T06:39:27;4.07;;;3.10;;
7410;SDS011;3747;48.628;9.058;2023-05-07T06:41:54;3.60;;;2.70;;
7410;SDS011;3747;48.628;9.058;2023-05-07T06:44:21;4.23;;;2.93;;
7410;SDS011;3747;48.628;9.058;2023-05-07T06:46:48;3.57;;;3.17;;
7410;SDS011;3747;48.628;9.058;2023-05-07T06:49:16;2.70;;;2.40;;
7410;SDS011;3747;48.628;9.058;2023-05-07T06:51:43;3.03;;;2.80;;
7410;SDS011;3747;48.628;9.058;2023-05-07T06:54:09;2.53;;;2.30;;
7410;SDS011;3747;48.628;9.058;2023-05-07T06:56:36;2.40;;;2.20;;
7410;SDS011;3747;48.628;9.058;2023-05-07T06:59:03;2.37;;;2.17;;
7410;SDS011;3747;48.628;9.058;2023-05-07T07:01:30;2.40;;;2.20;;
7410;SDS011;3747;48.628;9.058;2023-05-07T07:03:56;2.33;;;2.07;;
7410;SDS011;3747;48.628;9.058;2023-05-07T07:06:24;2.10;;;1.90;;
7410;SDS011;3747;48.628;9.058;2023-05-07T07:08:51;3.13;;;2.33;;
7410;SDS011;3747;48.628;9.058;2023-05-07T07:11:18;2.50;;;2.13;;
7410;SDS011;3747;48.628;9.058;2023-05-07T07:13:45;3.13;;;1.80;;
7410;SDS011;3747;48.628;9.058;2023-05-07T07:16:12;2.20;;;1.87;;
7410;SDS011;3747;48.628;9.058;2023-05-07T07:18:39;2.37;;;2.13;;
7410;SDS011;3747;48.628;9.058;2023-05-07T07:21:05;2.90;;;1.90;;
7410;SDS011;3747;48.628;9.058;2023-05-07T07:23:33;3.43;;;2.20;;
7410;SDS011;3747;48.628;9.058;2023-05-07T07:26:00;2.03;;;1.77;;
7410;SDS011;3747;48.628;9.058;2023-05-07T07:28:27;2.10;;;1.97;;
7410;SDS011;3747;48.628;9.058;2023-05-07T07:30:53;2.50;;;1.97;;
7410;SDS011;3747;48.628;9.058;2023-05-07T07:33:20;3.43;;;2.20;;
7410;SDS011;3747;48.628;9.058;2023-05-07T07:35:47;2.43;;;2.23;;
7410;SDS011;3747;48.628;9.058;2023-05-07T07:38:13;1.80;;;1.70;;
7410;SDS011;3747;48.628;9.058;2023-05-07T07:40:41;3.27;;;1.80;;
7410;SDS011;3747;48.628;9.058;2023-05-07T07:43:09;2.30;;;2.10;;
7410;SDS011;3747;48.628;9.058;2023-05-07T07:45:35;1.80;;;1.70;;
7410;SDS011;3747;48.628;9.058;2023-05-07T07:48:02;2.50;;;1.70;;
7410;SDS011;3747;48.628;9.058;2023-05-07T07:50:29;2.57;;;1.93;;
7410;SDS011;3747;48.628;9.058;2023-05-07T07:52:56;2.70;;;1.97;;
7410;SDS011;3747;48.628;9.058;2023-05-07T07:55:23;1.80;;;1.63;;
7410;SDS011;3747;48.628;9.058;2023-05-07T07:57:51;1.50;;;1.40;;
7410;SDS011;3747;48.628;9.058;2023-05-07T08:00:17;1.60;;;1.50;;
7410;SDS011;3747;48.628;9.058;2023-05-07T08:02:44;2.00;;;1.90;;
7410;SDS011;3747;48.628;9.058;2023-05-07T08:05:11;2.17;;;1.40;;
7410;SDS011;3747;48.628;9.058;2023-05-07T08:07:38;1.70;;;1.60;;
7410;SDS011;3747;48.628;9.058;2023-05-07T08:10:05;1.73;;;1.63;;
7410;SDS011;3747;48.628;9.058;2023-05-07T08:12:32;1.60;;;1.50;;
7410;SDS011;3747;48.628;9.058;2023-05-07T08:15:00;3.07;;;1.60;;
7410;SDS011;3747;48.628;9.058;2023-05-07T08:17:27;1.90;;;1.80;;
7410;SDS011;3747;48.628;9.058;2023-05-07T08:19:53;2.10;;;1.40;;
7410;SDS011;3747;48.628;9.058;2023-05-07T08:22:20;1.83;;;1.53;;
7410;SDS011;3747;48.628;9.058;2023-05-07T08:24:47;1.93;;;1.50;;
7410;SDS011;3747;48.628;9.058;2023-05-07T08:27:14;3.40;;;1.80;;
7410;SDS011;3747;48.628;9.058;2023-05-07T08:29:41;1.97;;;1.80;;
7410;SDS011;3747;48.628;9.058;2023-05-07T08:32:09;1.70;;;1.60;;
7410;SDS011;3747;48.628;9.058;2023-05-07T08:34:35;3.03;;;1.90;;
7410;SDS011;3747;48.628;9.058;2023-05-07T08:37:02;1.80;;;1.50;;
7410;SDS011;3747;48.628;9.058;2023-05-07T08:39:29;1.53;;;1.43;;
7410;SDS011;3747;48.628;9.058;2023-05-07T08:41:56;1.60;;;1.50;;
7410;SDS011;3747;48.628;9.058;2023-05-07T08:44:27;3.50;;;1.90;;
7410;SDS011;3747;48.628;9.058;2023-05-07T08:46:57;1.50;;;1.40;;
7410;SDS011;3747;48.628;9.058;2023-05-07T08:49:27;1.57;;;1.47;;
7410;SDS011;3747;48.628;9.058;2023-05-07T08:51:54;1.90;;;1.70;;
7410;SDS011;3747;48.628;9.058;2023-05-07T08:54:21;2.27;;;1.50;;
7410;SDS011;3747;48.628;9.058;2023-05-07T08:56:48;1.50;;;1.37;;
7410;SDS011;3747;48.628;9.058;2023-05-07T08:59:15;4.73;;;1.67;;
7410;SDS011;3747;48.628;9.058;2023-05-07T09:01:42;2.40;;;1.80;;
7410;SDS011;3747;48.628;9.058;2023-05-07T09:04:09;2.03;;;1.67;;
7410;SDS011;3747;48.628;9.058;2023-05-07T09:06:37;1.80;;;1.70;;
7410;SDS011;3747;48.628;9.058;2023-05-07T09:09:06;1.77;;;1.60;;
7410;SDS011;3747;48.628;9.058;2023-05-07T09:11:33;4.00;;;1.70;;
7410;SDS011;3747;48.628;9.058;2023-05-07T09:14:00;2.70;;;1.93;;
7410;SDS011;3747;48.628;9.058;2023-05-07T09:16:28;2.57;;;1.80;;
7410;SDS011;3747;48.628;9.058;2023-05-07T09:18:56;2.30;;;1.97;;
7410;SDS011;3747;48.628;9.058;2023-05-07T09:21:24;2.77;;;1.40;;
7410;SDS011;3747;48.628;9.058;2023-05-07T09:23:52;3.23;;;1.63;;
7410;SDS011;3747;48.628;9.058;2023-05-07T09:26:21;3.27;;;1.60;;
7410;SDS011;3747;48.628;9.058;2023-05-07T09:28:49;2.03;;;1.40;;
7410;SDS011;3747;48.628;9.058;2023-05-07T09:31:16;2.00;;;1.50;;
7410;SDS011;3747;48.628;9.058;2023-05-07T09:33:43;2.50;;;1.60;;
7410;SDS011;3747;48.628;9.058;2023-05-07T09:36:10;2.00;;;1.80;;
7410;SDS011;3747;48.628;9.058;2023-05-07T09:38:37;2.17;;;1.97;;
7410;SDS011;3747;48.628;9.058;2023-05-07T09:41:06;1.70;;;1.60;;
7410;SDS011;3747;48.628;9.058;2023-05-07T09:43:34;2.00;;;1.90;;
7410;SDS011;3747;48.628;9.058;2023-05-07T09:46:02;1.70;;;1.60;;
7410;SDS011;3747;48.628;9.058;2023-05-07T09:48:32;2.03;;;1.83;;
7410;SDS011;3747;48.628;9.058;2023-05-07T09:51:03;2.03;;;1.80;;
7410;SDS011;3747;48.628;9.058;2023-05-07T09:53:36;2.87;;;1.60;;
7410;SDS011;3747;48.628;9.058;2023-05-07T09:56:04;1.60;;;1.50;;
7410;SDS011;3747;48.628;9.058;2023-05-07T09:58:33;4.03;;;2.20;;
7410;SDS011;3747;48.628;9.058;2023-05-07T10:01:02;1.95;;;1.85;;
7410;SDS011;3747;48.628;9.058;2023-05-07T10:03:30;1.83;;;1.50;;
7410;SDS011;3747;48.628;9.058;2023-05-07T10:05:58;1.67;;;1.40;;
7410;SDS011;3747;48.628;9.058;2023-05-07T10:08:26;5.53;;;2.45;;
7410;SDS011;3747;48.628;9.058;2023-05-07T10:10:53;2.95;;;2.15;;
7410;SDS011;3747;48.628;9.058;2023-05-07T10:13:21;2.30;;;1.50;;
7410;SDS011;3747;48.628;9.058;2023-05-07T10:15:48;2.23;;;2.03;;
7410;SDS011;3747;48.628;9.058;2023-05-07T10:18:16;2.80;;;1.93;;
7410;SDS011;3747;48.628;9.058;2023-05-07T10:20:44;2.80;;;2.27;;
7410;SDS011;3747;48.628;9.058;2023-05-07T10:23:13;3.00;;;1.90;;
7410;SDS011;3747;48.628;9.058;2023-05-07T10:25:44;2.07;;;1.67;;
7410;SDS011;3747;48.628;9.058;2023-05-07T10:28:11;5.20;;;2.10;;
7410;SDS011;3747;48.628;9.058;2023-05-07T10:30:46;1.83;;;1.73;;
7410;SDS011;3747;48.628;9.058;2023-05-07T10:33:26;2.23;;;1.77;;
7410;SDS011;3747;48.628;9.058;2023-05-07T10:35:55;1.93;;;1.77;;
7410;SDS011;3747;48.628;9.058;2023-05-07T10:38:25;1.77;;;1.60;;
7410;SDS011;3747;48.628;9.058;2023-05-07T10:40:52;1.93;;;1.83;;
7410;SDS011;3747;48.628;9.058;2023-05-07T10:43:19;2.38;;;1.92;;
7410;SDS011;3747;48.628;9.058;2023-05-07T10:51:36;1.92;;;1.83;;
7410;SDS011;3747;48.628;9.058;2023-05-07T10:54:22;2.70;;;1.50;;
7410;SDS011;3747;48.628;9.058;2023-05-07T10:56:51;1.60;;;1.50;;
7410;SDS011;3747;48.628;9.058;2023-05-07T10:59:34;3.35;;;1.70;;
7410;SDS011;3747;48.628;9.058;2023-05-07T11:02:08;2.25;;;1.70;;
7410;SDS011;3747;48.628;9.058;2023-05-07T11:04:36;2.70;;;1.55;;
7410;SDS011;3747;48.628;9.058;2023-05-07T11:09:54;1.50;;;1.40;;
7410;SDS011;3747;48.628;9.058;2023-05-07T11:12:47;3.10;;;1.50;;
7410;SDS011;3747;48.628;9.058;2023-05-07T11:15:34;2.30;;;1.60;;
7410;SDS011;3747;48.628;9.058;2023-05-07T11:18:11;2.67;;;1.43;;
7410;SDS011;3747;48.628;9.058;2023-05-07T11:20:53;2.57;;;1.63;;
7410;SDS011;3747;48.628;9.058;2023-05-07T11:26:23;5.20;;;1.40;;
7410;SDS011;3747;48.628;9.058;2023-05-07T11:28:51;2.13;;;1.40;;
7410;SDS011;3747;48.628;9.058;2023-05-07T11:31:23;2.00;;;1.60;;
7410;SDS011;3747;48.628;9.058;2023-05-07T11:33:52;1.50;;;1.30;;
7410;SDS011;3747;48.628;9.058;2023-05-07T11:36:21;2.73;;;1.80;;
7410;SDS011;3747;48.628;9.058;2023-05-07T11:38:48;1.87;;;1.60;;
7410;SDS011;3747;48.628;9.058;2023-05-07T11:41:16;1.40;;;1.30;;
7410;SDS011;3747;48.628;9.058;2023-05-07T11:43:57;1.67;;;1.43;;
7410;SDS011;3747;48.628;9.058;2023-05-07T11:46:26;4.23;;;1.70;;
7410;SDS011;3747;48.628;9.058;2023-05-07T11:48:54;2.60;;;1.60;;
7410;SDS011;3747;48.628;9.058;2023-05-07T11:51:22;2.40;;;1.57;;
7410;SDS011;3747;48.628;9.058;2023-05-07T11:53:51;1.97;;;1.40;;
7410;SDS011;3747;48.628;9.058;2023-05-07T11:56:18;2.23;;;1.77;;
7410;SDS011;3747;48.628;9.058;2023-05-07T11:58:45;1.83;;;1.70;;
7410;SDS011;3747;48.628;9.058;2023-05-07T12:01:13;5.13;;;1.87;;
7410;SDS011;3747;48.628;9.058;2023-05-07T12:03:42;10.47;;;2.30;;
7410;SDS011;3747;48.628;9.058;2023-05-07T12:06:12;5.53;;;2.73;;
7410;SDS011;3747;48.628;9.058;2023-05-07T12:08:40;7.20;;;3.70;;
7410;SDS011;3747;48.628;9.058;2023-05-07T12:11:07;6.93;;;3.40;;
7410;SDS011;3747;48.628;9.058;2023-05-07T12:13:36;5.53;;;2.83;;
7410;SDS011;3747;48.628;9.058;2023-05-07T12:16:03;9.37;;;4.47;;
7410;SDS011;3747;48.628;9.058;2023-05-07T12:18:31;6.93;;;3.57;;
7410;SDS011;3747;48.628;9.058;2023-05-07T12:20:59;3.97;;;3.37;;
7410;SDS011;3747;48.628;9.058;2023-05-07T12:23:28;7.27;;;2.83;;
7410;SDS011;3747;48.628;9.058;2023-05-07T12:25:55;4.03;;;2.93;;
7410;SDS011;3747;48.628;9.058;2023-05-07T12:28:22;4.10;;;2.37;;
7410;SDS011;3747;48.628;9.058;2023-05-07T12:30:50;3.80;;;3.03;;
7410;SDS011;3747;48.628;9.058;2023-05-07T12:33:17;2.20;;;1.90;;
7410;SDS011;3747;48.628;9.058;2023-05-07T12:35:47;3.33;;;3.03;;
7410;SDS011;3747;48.628;9.058;2023-05-07T12:38:15;5.40;;;2.97;;
7410;SDS011;3747;48.628;9.058;2023-05-07T12:40:44;5.77;;;2.87;;
7410;SDS011;3747;48.628;9.058;2023-05-07T12:43:15;5.03;;;3.60;;
7410;SDS011;3747;48.628;9.058;2023-05-07T12:45:43;6.83;;;3.60;;
7410;SDS011;3747;48.628;9.058;2023-05-07T12:48:11;4.37;;;3.97;;
7410;SDS011;3747;48.628;9.058;2023-05-07T12:50:38;4.40;;;4.00;;
7410;SDS011;3747;48.628;9.058;2023-05-07T12:53:05;6.07;;;3.57;;
7410;SDS011;3747;48.628;9.058;2023-05-07T12:55:40;5.73;;;4.13;;
7410;SDS011;3747;48.628;9.058;2023-05-07T12:58:09;7.57;;;4.87;;
7410;SDS011;3747;48.628;9.058;2023-05-07T13:00:42;5.13;;;3.97;;
7410;SDS011;3747;48.628;9.058;2023-05-07T13:03:09;4.83;;;3.60;;
7410;SDS011;3747;48.628;9.058;2023-05-07T13:05:36;4.00;;;3.60;;
7410;SDS011;3747;48.628;9.058;2023-05-07T13:08:03;4.83;;;2.37;;
7410;SDS011;3747;48.628;9.058;2023-05-07T13:10:30;4.73;;;2.50;;
7410;SDS011;3747;48.628;9.058;2023-05-07T13:12:59;2.33;;;2.13;;
7410;SDS011;3747;48.628;9.058;2023-05-07T13:15:27;3.27;;;2.67;;
7410;SDS011;3747;48.628;9.058;2023-05-07T13:17:53;4.43;;;2.90;;
7410;SDS011;3747;48.628;9.058;2023-05-07T13:20:20;3.17;;;2.23;;
7410;SDS011;3747;48.628;9.058;2023-05-07T13:22:47;2.30;;;2.10;;
7410;SDS011;3747;48.628;9.058;2023-05-07T13:25:13;2.37;;;2.17;;
7410;SDS011;3747;48.628;9.058;2023-05-07T13:27:40;3.83;;;2.70;;
7410;SDS011;3747;48.628;9.058;2023-05-07T13:30:07;4.33;;;2.57;;
7410;SDS011;3747;48.628;9.058;2023-05-07T13:32:35;4.20;;;2.77;;
7410;SDS011;3747;48.628;9.058;2023-05-07T13:35:02;3.97;;;2.60;;
7410;SDS011;3747;48.628;9.058;2023-05-07T13:37:29;3.47;;;3.07;;
7410;SDS011;3747;48.628;9.058;2023-05-07T13:39:56;4.17;;;3.80;;
7410;SDS011;3747;48.628;9.058;2023-05-07T13:42:22;5.30;;;3.83;;
7410;SDS011;3747;48.628;9.058;2023-05-07T13:44:49;4.23;;;3.60;;
7410;SDS011;3747;48.628;9.058;2023-05-07T13:47:16;5.10;;;3.77;;
7410;SDS011;3747;48.628;9.058;2023-05-07T13:49:44;4.53;;;3.23;;
7410;SDS011;3747;48.628;9.058;2023-05-07T13:52:10;2.77;;;2.57;;
7410;SDS011;3747;48.628;9.058;2023-05-07T13:54:37;3.60;;;2.60;;
7410;SDS011;3747;48.628;9.058;2023-05-07T13:57:04;3.20;;;2.13;;
7410;SDS011;3747;48.628;9.058;2023-05-07T13:59:31;5.50;;;2.73;;
7410;SDS011;3747;48.628;9.058;2023-05-07T14:01:57;4.47;;;3.23;;
7410;SDS011;3747;48.628;9.058;2023-05-07T14:04:24;4.70;;;3.03;;
7410;SDS011;3747;48.628;9.058;2023-05-07T14:06:52;6.07;;;3.00;;
7410;SDS011;3747;48.628;9.058;2023-05-07T14:09:19;4.17;;;3.60;;
7410;SDS011;3747;48.628;9.058;2023-05-07T14:11:46;5.27;;;3.27;;
7410;SDS011;3747;48.628;9.058;2023-05-07T14:14:16;5.63;;;3.87;;
7410;SDS011;3747;48.628;9.058;2023-05-07T14:16:43;6.47;;;3.43;;
7410;SDS011;3747;48.628;9.058;2023-05-07T14:19:09;3.73;;;3.37;;
7410;SDS011;3747;48.628;9.058;2023-05-07T14:21:36;4.33;;;3.93;;
7410;SDS011;3747;48.628;9.058;2023-05-07T14:24:05;5.37;;;3.97;;
7410;SDS011;3747;48.628;9.058;2023-05-07T14:26:32;6.00;;;4.07;;
7410;SDS011;3747;48.628;9.058;2023-05-07T14:28:59;5.37;;;4.77;;
7410;SDS011;3747;48.628;9.058;2023-05-07T14:31:26;5.50;;;4.53;;
7410;SDS011;3747;48.628;9.058;2023-05-07T14:36:29;7.40;;;3.73;;
7410;SDS011;3747;48.628;9.058;2023-05-07T14:38:56;4.70;;;4.30;;
7410;SDS011;3747;48.628;9.058;2023-05-07T14:41:25;7.50;;;4.03;;
7410;SDS011;3747;48.628;9.058;2023-05-07T14:43:52;4.47;;;4.03;;
7410;SDS011;3747;48.628;9.058;2023-05-07T14:46:19;5.20;;;3.83;;
7410;SDS011;3747;48.628;9.058;2023-05-07T14:48:45;5.47;;;3.40;;
7410;SDS011;3747;48.628;9.058;2023-05-07T14:51:12;4.40;;;4.00;;
7410;SDS011;3747;48.628;9.058;2023-05-07T14:53:40;3.80;;;3.50;;
7410;SDS011;3747;48.628;9.058;2023-05-07T14:56:07;5.50;;;4.97;;
7410;SDS011;3747;48.628;9.058;2023-05-07T14:58:35;6.63;;;4.70;;
7410;SDS011;3747;48.628;9.058;2023-05-07T15:01:03;5.00;;;4.20;;
7410;SDS011;3747;48.628;9.058;2023-05-07T15:03:29;5.50;;;4.67;;
7410;SDS011;3747;48.628;9.058;2023-05-07T15:05:56;6.17;;;4.33;;
7410;SDS011;3747;48.628;9.058;2023-05-07T15:08:23;5.43;;;4.40;;
7410;SDS011;3747;48.628;9.058;2023-05-07T15:10:50;4.27;;;3.87;;
7410;SDS011;3747;48.628;9.058;2023-05-07T15:13:16;3.70;;;3.40;;
7410;SDS011;3747;48.628;9.058;2023-05-07T15:15:44;3.30;;;3.00;;
7410;SDS011;3747;48.628;9.058;2023-05-07T15:18:11;5.50;;;5.00;;
7410;SDS011;3747;48.628;9.058;2023-05-07T15:20:38;4.13;;;3.63;;
7410;SDS011;3747;48.628;9.058;2023-05-07T15:23:05;6.93;;;4.53;;
7410;SDS011;3747;48.628;9.058;2023-05-07T15:25:34;4.20;;;3.80;;
7410;SDS011;3747;48.628;9.058;2023-05-07T15:28:02;9.30;;;6.43;;
7410;SDS011;3747;48.628;9.058;2023-05-07T15:30:29;6.20;;;5.07;;
7410;SDS011;3747;48.628;9.058;2023-05-07T15:32:57;7.73;;;5.17;;